sensor_id;sensor_type;location;lat;lon;timestamp;P1;durP1;ratioP1;P2;durP2;ratioP2
928;SDS011;451;47.988;7.842;2023-09-12T00:02:29;12.90;;;11.63;;
928;SDS011;451;47.988;7.842;2023-09-12T00:11:32;13.80;;;12.40;;
928;SDS011;451;47.988;7.842;2023-09-12T00:20:37;12.03;;;10.80;;
928;SDS011;451;47.988;7.842;2023-09-12T00:29:40;13.10;;;11.83;;
928;SDS011;451;47.988;7.842;2023-09-12T00:38:44;13.43;;;11.47;;
928;SDS011;451;47.988;7.842;2023-09-12T00:47:48;12.27;;;10.97;;
928;SDS011;451;47.988;7.842;2023-09-12T00:56:53;12.00;;;10.60;;
928;SDS011;451;47.988;7.842;2023-09-12T01:05:57;12.13;;;10.90;;
928;SDS011;451;47.988;7.842;2023-09-12T01:15:03;13.17;;;11.80;;
928;SDS011;451;47.988;7.842;2023-09-12T01:24:15;12.67;;;11.40;;
928;SDS011;451;47.988;7.842;2023-09-12T01:33:43;12.63;;;11.30;;
928;SDS011;451;47.988;7.842;2023-09-12T01:42:46;12.60;;;11.30;;
928;SDS011;451;47.988;7.842;2023-09-12T01:51:53;12.27;;;11.17;;
928;SDS011;451;47.988;7.842;2023-09-12T02:00:57;12.93;;;11.63;;
928;SDS011;451;47.988;7.842;2023-09-12T02:10:02;12.40;;;11.30;;
928;SDS011;451;47.988;7.842;2023-09-12T02:19:06;11.93;;;10.90;;
928;SDS011;451;47.988;7.842;2023-09-12T02:28:12;14.20;;;12.90;;
928;SDS011;451;47.988;7.842;2023-09-12T02:37:15;15.27;;;12.90;;
928;SDS011;451;47.988;7.842;2023-09-12T02:46:19;13.20;;;11.90;;
928;SDS011;451;47.988;7.842;2023-09-12T02:55:23;15.60;;;12.50;;
928;SDS011;451;47.988;7.842;2023-09-12T03:04:27;14.73;;;13.23;;
928;SDS011;451;47.988;7.842;2023-09-12T03:13:32;13.20;;;11.80;;
928;SDS011;451;47.988;7.842;2023-09-12T03:22:37;13.33;;;12.00;;
928;SDS011;451;47.988;7.842;2023-09-12T03:31:41;13.40;;;12.17;;
928;SDS011;451;47.988;7.842;2023-09-12T03:40:46;19.33;;;12.73;;
928;SDS011;451;47.988;7.842;2023-09-12T03:49:49;13.90;;;12.60;;
928;SDS011;451;47.988;7.842;2023-09-12T03:58:54;14.20;;;12.83;;
928;SDS011;451;47.988;7.842;2023-09-12T04:08:00;13.73;;;12.43;;
928;SDS011;451;47.988;7.842;2023-09-12T04:17:05;13.20;;;12.00;;
928;SDS011;451;47.988;7.842;2023-09-12T04:26:08;14.17;;;12.40;;
928;SDS011;451;47.988;7.842;2023-09-12T04:35:13;16.60;;;14.03;;
928;SDS011;451;47.988;7.842;2023-09-12T04:44:18;15.63;;;13.97;;
928;SDS011;451;47.988;7.842;2023-09-12T04:53:22;14.17;;;12.80;;
928;SDS011;451;47.988;7.842;2023-09-12T05:02:26;17.97;;;13.93;;
928;SDS011;451;47.988;7.842;2023-09-12T05:11:31;14.57;;;13.20;;
928;SDS011;451;47.988;7.842;2023-09-12T05:20:35;16.93;;;14.53;;
928;SDS011;451;47.988;7.842;2023-09-12T05:29:40;17.90;;;13.50;;
928;SDS011;451;47.988;7.842;2023-09-12T05:38:43;15.10;;;13.70;;
928;SDS011;451;47.988;7.842;2023-09-12T05:47:48;15.50;;;14.00;;
928;SDS011;451;47.988;7.842;2023-09-12T05:56:52;14.40;;;13.03;;
928;SDS011;451;47.988;7.842;2023-09-12T06:05:57;15.23;;;13.73;;
928;SDS011;451;47.988;7.842;2023-09-12T06:15:00;15.80;;;14.00;;
928;SDS011;451;47.988;7.842;2023-09-12T06:24:11;13.67;;;12.50;;
928;SDS011;451;47.988;7.842;2023-09-12T06:33:16;14.90;;;13.50;;
928;SDS011;451;47.988;7.842;2023-09-12T06:42:20;14.63;;;13.27;;
928;SDS011;451;47.988;7.842;2023-09-12T06:51:24;16.43;;;14.70;;
928;SDS011;451;47.988;7.842;2023-09-12T07:00:29;14.07;;;12.60;;
928;SDS011;451;47.988;7.842;2023-09-12T07:09:34;13.23;;;12.03;;
928;SDS011;451;47.988;7.842;2023-09-12T07:18:39;13.77;;;12.47;;
928;SDS011;451;47.988;7.842;2023-09-12T07:27:42;14.27;;;12.87;;
928;SDS011;451;47.988;7.842;2023-09-12T07:36:46;14.90;;;13.17;;
928;SDS011;451;47.988;7.842;2023-09-12T07:45:54;13.93;;;12.53;;
928;SDS011;451;47.988;7.842;2023-09-12T07:55:00;14.23;;;12.90;;
928;SDS011;451;47.988;7.842;2023-09-12T08:04:04;15.20;;;13.87;;
928;SDS011;451;47.988;7.842;2023-09-12T08:13:09;15.50;;;14.00;;
928;SDS011;451;47.988;7.842;2023-09-12T08:22:12;14.77;;;13.27;;
928;SDS011;451;47.988;7.842;2023-09-12T08:31:17;14.30;;;12.90;;
928;SDS011;451;47.988;7.842;2023-09-12T08:40:20;14.70;;;12.37;;
928;SDS011;451;47.988;7.842;2023-09-12T08:49:26;13.40;;;12.10;;
928;SDS011;451;47.988;7.842;2023-09-12T08:58:30;12.53;;;11.33;;
928;SDS011;451;47.988;7.842;2023-09-12T09:07:36;14.10;;;11.80;;
928;SDS011;451;47.988;7.842;2023-09-12T09:16:40;11.73;;;10.53;;
928;SDS011;451;47.988;7.842;2023-09-12T09:25:46;11.27;;;10.30;;
928;SDS011;451;47.988;7.842;2023-09-12T09:34:55;10.93;;;10.03;;
928;SDS011;451;47.988;7.842;2023-09-12T09:43:59;9.90;;;9.00;;
928;SDS011;451;47.988;7.842;2023-09-12T09:53:03;9.40;;;8.60;;
928;SDS011;451;47.988;7.842;2023-09-12T10:02:13;8.83;;;8.03;;
928;SDS011;451;47.988;7.842;2023-09-12T10:11:23;10.30;;;9.23;;
928;SDS011;451;47.988;7.842;2023-09-12T10:20:32;9.90;;;8.50;;
928;SDS011;451;47.988;7.842;2023-09-12T10:29:38;9.20;;;8.33;;
928;SDS011;451;47.988;7.842;2023-09-12T10:38:48;10.47;;;7.90;;
928;SDS011;451;47.988;7.842;2023-09-12T10:47:51;8.50;;;7.93;;
928;SDS011;451;47.988;7.842;2023-09-12T10:57:03;8.50;;;7.70;;
928;SDS011;451;47.988;7.842;2023-09-12T11:06:19;9.40;;;8.40;;
928;SDS011;451;47.988;7.842;2023-09-12T11:15:26;10.27;;;8.60;;
928;SDS011;451;47.988;7.842;2023-09-12T11:24:31;8.57;;;7.87;;
928;SDS011;451;47.988;7.842;2023-09-12T11:33:50;9.60;;;8.90;;
928;SDS011;451;47.988;7.842;2023-09-12T11:42:54;9.40;;;8.70;;
928;SDS011;451;47.988;7.842;2023-09-12T11:51:59;10.43;;;9.40;;
928;SDS011;451;47.988;7.842;2023-09-12T12:01:16;42.23;;;26.33;;
928;SDS011;451;47.988;7.842;2023-09-12T12:10:22;17.97;;;13.93;;
928;SDS011;451;47.988;7.842;2023-09-12T12:19:27;10.43;;;9.57;;
928;SDS011;451;47.988;7.842;2023-09-12T12:28:32;10.23;;;9.43;;
928;SDS011;451;47.988;7.842;2023-09-12T12:37:36;9.87;;;8.97;;
928;SDS011;451;47.988;7.842;2023-09-12T12:46:48;9.47;;;8.67;;
928;SDS011;451;47.988;7.842;2023-09-12T12:55:52;11.70;;;10.60;;
928;SDS011;451;47.988;7.842;2023-09-12T13:04:57;11.60;;;10.60;;
928;SDS011;451;47.988;7.842;2023-09-12T13:14:00;10.33;;;9.50;;
928;SDS011;451;47.988;7.842;2023-09-12T13:23:11;9.57;;;8.80;;
928;SDS011;451;47.988;7.842;2023-09-12T13:32:14;9.97;;;9.07;;
928;SDS011;451;47.988;7.842;2023-09-12T13:41:21;9.90;;;9.00;;
928;SDS011;451;47.988;7.842;2023-09-12T13:50:26;6.07;;;5.57;;
928;SDS011;451;47.988;7.842;2023-09-12T13:59:31;7.87;;;5.70;;
928;SDS011;451;47.988;7.842;2023-09-12T14:08:34;6.07;;;5.57;;
928;SDS011;451;47.988;7.842;2023-09-12T14:17:39;6.57;;;6.07;;
928;SDS011;451;47.988;7.842;2023-09-12T14:26:42;7.70;;;7.00;;
928;SDS011;451;47.988;7.842;2023-09-12T14:35:47;7.53;;;7.03;;
928;SDS011;451;47.988;7.842;2023-09-12T14:44:50;7.67;;;6.90;;
928;SDS011;451;47.988;7.842;2023-09-12T14:53:55;7.73;;;6.93;;
928;SDS011;451;47.988;7.842;2023-09-12T15:02:58;8.80;;;8.10;;
928;SDS011;451;47.988;7.842;2023-09-12T15:12:04;8.23;;;7.43;;
928;SDS011;451;47.988;7.842;2023-09-12T15:21:08;8.57;;;7.83;;
928;SDS011;451;47.988;7.842;2023-09-12T15:30:13;9.37;;;8.57;;
928;SDS011;451;47.988;7.842;2023-09-12T15:39:17;9.27;;;8.57;;
928;SDS011;451;47.988;7.842;2023-09-12T15:48:21;9.83;;;9.13;;
928;SDS011;451;47.988;7.842;2023-09-12T15:57:25;8.87;;;8.13;;
928;SDS011;451;47.988;7.842;2023-09-12T16:06:30;9.03;;;8.30;;
928;SDS011;451;47.988;7.842;2023-09-12T16:15:33;9.93;;;9.13;;
928;SDS011;451;47.988;7.842;2023-09-12T16:24:38;9.27;;;8.57;;
928;SDS011;451;47.988;7.842;2023-09-12T16:33:41;9.23;;;8.33;;
928;SDS011;451;47.988;7.842;2023-09-12T16:42:45;9.20;;;8.40;;
928;SDS011;451;47.988;7.842;2023-09-12T16:51:49;10.23;;;9.43;;
928;SDS011;451;47.988;7.842;2023-09-12T17:00:53;9.43;;;8.63;;
928;SDS011;451;47.988;7.842;2023-09-12T17:09:57;10.50;;;9.50;;
928;SDS011;451;47.988;7.842;2023-09-12T17:19:02;9.47;;;8.67;;
928;SDS011;451;47.988;7.842;2023-09-12T17:28:05;9.10;;;8.30;;
928;SDS011;451;47.988;7.842;2023-09-12T17:37:10;9.27;;;7.80;;
928;SDS011;451;47.988;7.842;2023-09-12T17:46:13;6.83;;;6.33;;
928;SDS011;451;47.988;7.842;2023-09-12T17:55:18;11.90;;;8.97;;
928;SDS011;451;47.988;7.842;2023-09-12T18:04:23;6.90;;;6.37;;
928;SDS011;451;47.988;7.842;2023-09-12T18:13:28;6.30;;;5.70;;
928;SDS011;451;47.988;7.842;2023-09-12T18:22:32;8.60;;;6.37;;
928;SDS011;451;47.988;7.842;2023-09-12T18:31:37;12.63;;;9.03;;
928;SDS011;451;47.988;7.842;2023-09-12T18:40:40;8.23;;;7.63;;
928;SDS011;451;47.988;7.842;2023-09-12T18:49:45;9.03;;;7.50;;
928;SDS011;451;47.988;7.842;2023-09-12T18:58:49;10.33;;;7.90;;
928;SDS011;451;47.988;7.842;2023-09-12T19:07:54;9.17;;;8.47;;
928;SDS011;451;47.988;7.842;2023-09-12T19:16:57;8.97;;;8.17;;
928;SDS011;451;47.988;7.842;2023-09-12T19:26:01;10.73;;;9.50;;
928;SDS011;451;47.988;7.842;2023-09-12T19:35:06;8.70;;;7.77;;
928;SDS011;451;47.988;7.842;2023-09-12T19:44:12;9.53;;;8.73;;
928;SDS011;451;47.988;7.842;2023-09-12T19:53:16;10.50;;;9.57;;
928;SDS011;451;47.988;7.842;2023-09-12T20:02:21;9.90;;;8.97;;
928;SDS011;451;47.988;7.842;2023-09-12T20:11:24;11.03;;;9.47;;
928;SDS011;451;47.988;7.842;2023-09-12T20:20:29;9.97;;;9.07;;
928;SDS011;451;47.988;7.842;2023-09-12T20:29:32;13.87;;;10.00;;
928;SDS011;451;47.988;7.842;2023-09-12T20:38:43;12.07;;;10.27;;
928;SDS011;451;47.988;7.842;2023-09-12T20:47:47;10.93;;;9.93;;
928;SDS011;451;47.988;7.842;2023-09-12T20:56:54;12.03;;;10.93;;
928;SDS011;451;47.988;7.842;2023-09-12T21:05:57;15.63;;;10.30;;
928;SDS011;451;47.988;7.842;2023-09-12T21:15:02;11.87;;;10.77;;
928;SDS011;451;47.988;7.842;2023-09-12T21:24:06;11.50;;;10.50;;
928;SDS011;451;47.988;7.842;2023-09-12T21:33:11;13.67;;;12.10;;
928;SDS011;451;47.988;7.842;2023-09-12T21:42:14;12.90;;;11.70;;
928;SDS011;451;47.988;7.842;2023-09-12T21:51:21;16.13;;;11.43;;
928;SDS011;451;47.988;7.842;2023-09-12T22:00:25;14.93;;;13.37;;
928;SDS011;451;47.988;7.842;2023-09-12T22:09:31;14.10;;;12.43;;
928;SDS011;451;47.988;7.842;2023-09-12T22:18:35;15.80;;;14.10;;
928;SDS011;451;47.988;7.842;2023-09-12T22:27:41;16.60;;;14.80;;
928;SDS011;451;47.988;7.842;2023-09-12T22:36:45;18.53;;;15.17;;
928;SDS011;451;47.988;7.842;2023-09-12T22:45:50;15.27;;;12.50;;
928;SDS011;451;47.988;7.842;2023-09-12T22:54:53;10.83;;;9.73;;
928;SDS011;451;47.988;7.842;2023-09-12T23:04:01;13.97;;;10.47;;
928;SDS011;451;47.988;7.842;2023-09-12T23:13:04;10.23;;;9.13;;
928;SDS011;451;47.988;7.842;2023-09-12T23:22:10;14.00;;;12.53;;
928;SDS011;451;47.988;7.842;2023-09-12T23:31:14;12.27;;;10.90;;
928;SDS011;451;47.988;7.842;2023-09-12T23:40:19;11.30;;;9.80;;
928;SDS011;451;47.988;7.842;2023-09-12T23:49:22;8.60;;;7.80;;
928;SDS011;451;47.988;7.842;2023-09-12T23:58:27;6.50;;;5.90;;
